Time;durP1;ratioP1;P1;durP2;ratioP2;P2;SDS_P1;SDS_P2;PMS_P1;PMS_P2;Temp;Humidity;BMP_temperature;BMP_pressure;BME280_temperature;BME280_humidity;BME280_pressure;Samples;Min_cycle;Max_cycle;Signal;HPM_P1;HPM_P2
2019/04/04 00:01:35;;;;;;;8.549999;7.749999;;;;;;;5.66;66.36426;93601.31;;;;
2019/04/04 00:02:36;;;;;;;8.550001;7.75;;;;;;;5.59;66.61914;93597.49;;;;
2019/04/04 00:03:38;;;;;;;8.550001;7.75;;;;;;;5.59;66.61914;93597.49;;;;
2019/04/04 00:04:39;;;;;;;8.899999;8.050001;;;;;;;5.53;66.75781;93599.38;;;;
2019/04/04 00:05:40;;;;;;;8.899999;8.050001;;;;;;;5.53;66.75781;93599.38;;;;
2019/04/04 00:06:41;;;;;;;8.899999;8.050001;;;;;;;5.53;66.75781;93599.38;;;;
2019/04/04 00:07:42;;;;;;;8.9;8.000001;;;;;;;5.48;66.9834;93602.92;;;;
2019/04/04 00:08:43;;;;;;;8.9;8.000001;;;;;;;5.48;66.9834;93602.92;;;;
2019/04/04 00:09:45;;;;;;;8.849999;8.049999;;;;;;;5.42;67.16504;93598.02;;;;
2019/04/04 00:10:46;;;;;;;8.849999;8.049999;;;;;;;5.42;67.16504;93598.02;;;;
2019/04/04 00:11:47;;;;;;;8.849999;8.049999;;;;;;;5.42;67.16504;93598.02;;;;
2019/04/04 00:12:48;;;;;;;8.45;7.649999;;;;;;;5.37;67.40039;93587.77;;;;
2019/04/04 00:13:50;;;;;;;8.45;7.649999;;;;;;;5.37;67.40039;93587.77;;;;
2019/04/04 00:14:51;;;;;;;8.45;7.649999;;;;;;;5.37;67.40039;93587.77;;;;
2019/04/04 00:15:52;;;;;;;8.45;7.649999;;;;;;;5.37;67.40039;93587.77;;;;
2019/04/04 00:16:53;;;;;;;8.45;7.649999;;;;;;;5.37;67.40039;93587.77;;;;
2019/04/04 00:17:54;;;;;;;8.299999;7.5;;;;;;;5.32;67.5625;93576.86;;;;
2019/04/04 00:18:55;;;;;;;8.299999;7.5;;;;;;;5.32;67.5625;93576.86;;;;
2019/04/04 00:19:57;;;;;;;8.299999;7.5;;;;;;;5.32;67.5625;93576.86;;;;
2019/04/04 00:20:58;;;;;;;8.700001;7.900001;;;;;;;5.3;67.47461;93571.08;;;;
2019/04/04 00:21:59;;;;;;;8.700001;7.900001;;;;;;;5.3;67.47461;93571.08;;;;
2019/04/04 00:23:00;;;;;;;8.700001;7.900001;;;;;;;5.3;67.47461;93571.08;;;;
2019/04/04 00:24:01;;;;;;;8.700001;7.900001;;;;;;;5.3;67.47461;93571.08;;;;
2019/04/04 00:25:03;;;;;;;8.700001;7.900001;;;;;;;5.3;67.47461;93571.08;;;;
2019/04/04 00:26:04;;;;;;;8.299998;7.5;;;;;;;5.15;67.93848;93557.87;;;;
2019/04/04 00:27:05;;;;;;;8.299998;7.5;;;;;;;5.15;67.93848;93557.87;;;;
2019/04/04 00:28:06;;;;;;;8.299998;7.5;;;;;;;5.15;67.93848;93557.87;;;;
2019/04/04 00:29:07;;;;;;;8.25;7.45;;;;;;;5.09;68.24707;93553.52;;;;
2019/04/04 00:30:08;;;;;;;8.25;7.45;;;;;;;5.09;68.24707;93553.52;;;;
2019/04/04 00:31:10;;;;;;;8.9;8.1;;;;;;;5.04;68.45996;93550.75;;;;
2019/04/04 00:32:11;;;;;;;8.9;8.1;;;;;;;5.04;68.45996;93550.75;;;;
2019/04/04 00:33:12;;;;;;;8.9;8.1;;;;;;;5.04;68.45996;93550.75;;;;
2019/04/04 00:34:13;;;;;;;9.15;8.299998;;;;;;;4.97;68.68262;93544.76;;;;
2019/04/04 00:35:14;;;;;;;9.15;8.299998;;;;;;;4.97;68.68262;93544.76;;;;
2019/04/04 00:36:15;;;;;;;9.15;8.299998;;;;;;;4.97;68.68262;93544.76;;;;
2019/04/04 00:37:17;;;;;;;8.599999;7.7;;;;;;;4.93;68.8457;93531.99;;;;
2019/04/04 00:38:18;;;;;;;8.599999;7.7;;;;;;;4.93;68.8457;93531.99;;;;
2019/04/04 00:39:19;;;;;;;8.249999;7.45;;;;;;;4.88;69.06934;93531.11;;;;
2019/04/04 00:40:20;;;;;;;8.249999;7.45;;;;;;;4.88;69.06934;93531.11;;;;
2019/04/04 00:41:21;;;;;;;8.249999;7.45;;;;;;;4.88;69.06934;93531.11;;;;
2019/04/04 00:42:22;;;;;;;8.5;7.700001;;;;;;;4.83;69.18848;93530.92;;;;
2019/04/04 00:43:24;;;;;;;8.5;7.700001;;;;;;;4.83;69.18848;93530.92;;;;
2019/04/04 00:44:25;;;;;;;8.799998;7.9;;;;;;;4.78;69.43457;93525.5;;;;
2019/04/04 00:45:26;;;;;;;8.799998;7.9;;;;;;;4.78;69.43457;93525.5;;;;
2019/04/04 00:46:27;;;;;;;8.799998;7.9;;;;;;;4.78;69.43457;93525.5;;;;
2019/04/04 00:47:28;;;;;;;8.45;7.649999;;;;;;;4.73;69.55371;93509.77;;;;
2019/04/04 00:48:29;;;;;;;8.45;7.649999;;;;;;;4.73;69.55371;93509.77;;;;
2019/04/04 00:49:30;;;;;;;8.45;7.649999;;;;;;;4.73;69.55371;93509.77;;;;
2019/04/04 00:50:32;;;;;;;8.45;7.649999;;;;;;;4.73;69.55371;93509.77;;;;
2019/04/04 00:51:33;;;;;;;8.45;7.649999;;;;;;;4.73;69.55371;93509.77;;;;
2019/04/04 00:52:34;;;;;;;8.349999;7.55;;;;;;;4.68;70.47461;93501.78;;;;
2019/04/04 00:53:35;;;;;;;8.349999;7.55;;;;;;;4.68;70.47461;93501.78;;;;
2019/04/04 00:54:36;;;;;;;8.349999;7.55;;;;;;;4.68;70.47461;93501.78;;;;
2019/04/04 00:55:38;;;;;;;8.450001;7.65;;;;;;;4.64;70.44727;93503.76;;;;
2019/04/04 00:56:39;;;;;;;8.450001;7.65;;;;;;;4.64;70.44727;93503.76;;;;
2019/04/04 00:57:40;;;;;;;8.700001;7.900001;;;;;;;4.6;70.50293;93500.87;;;;
2019/04/04 00:58:41;;;;;;;8.700001;7.900001;;;;;;;4.6;70.50293;93500.87;;;;
2019/04/04 00:59:42;;;;;;;8.700001;7.900001;;;;;;;4.6;70.50293;93500.87;;;;
2019/04/04 01:00:43;;;;;;;8.700001;7.900001;;;;;;;4.6;70.50293;93500.87;;;;
2019/04/04 01:01:45;;;;;;;8.700001;7.900001;;;;;;;4.6;70.50293;93500.87;;;;
2019/04/04 01:02:46;;;;;;;8.700001;7.900001;;;;;;;4.6;70.50293;93500.87;;;;
2019/04/04 01:03:47;;;;;;;8.6;7.799999;;;;;;;4.55;70.56934;93487.84;;;;
2019/04/04 01:04:48;;;;;;;8.6;7.799999;;;;;;;4.55;70.56934;93487.84;;;;
2019/04/04 01:05:49;;;;;;;8.6;7.799999;;;;;;;4.55;70.56934;93487.84;;;;
2019/04/04 01:06:51;;;;;;;8.5;7.699999;;;;;;;4.53;70.55566;93480.18;;;;
2019/04/04 01:07:52;;;;;;;8.5;7.699999;;;;;;;4.53;70.55566;93480.18;;;;
2019/04/04 01:08:53;;;;;;;8.5;7.699999;;;;;;;4.53;70.55566;93480.18;;;;
2019/04/04 01:09:54;;;;;;;8.5;7.699999;;;;;;;4.53;70.55566;93480.18;;;;
2019/04/04 01:10:55;;;;;;;8.5;7.699999;;;;;;;4.53;70.55566;93480.18;;;;
2019/04/04 01:11:57;;;;;;;8.5;7.7;;;;;;;4.45;70.7334;93480.98;;;;
2019/04/04 01:12:58;;;;;;;8.5;7.7;;;;;;;4.45;70.7334;93480.98;;;;
2019/04/04 01:13:59;;;;;;;8.5;7.7;;;;;;;4.45;70.7334;93480.98;;;;
2019/04/04 01:15:00;;;;;;;8.6;7.8;;;;;;;4.41;70.68457;93477.58;;;;
2019/04/04 01:16:02;;;;;;;8.6;7.8;;;;;;;4.41;70.68457;93477.58;;;;
2019/04/04 01:17:03;;;;;;;8.75;7.950001;;;;;;;4.33;70.95605;93478.92;;;;
2019/04/04 01:18:04;;;;;;;8.75;7.950001;;;;;;;4.33;70.95605;93478.92;;;;
2019/04/04 01:19:06;;;;;;;8.75;7.950001;;;;;;;4.33;70.95605;93478.92;;;;
2019/04/04 01:20:07;;;;;;;8.9;8.049999;;;;;;;4.26;71.16699;93479.46;;;;
2019/04/04 01:21:08;;;;;;;8.9;8.049999;;;;;;;4.26;71.16699;93479.46;;;;
2019/04/04 01:22:09;;;;;;;8.1;7.3;;;;;;;4.19;71.43066;93477.48;;;;
2019/04/04 01:23:11;;;;;;;8.1;7.3;;;;;;;4.19;71.43066;93477.48;;;;
2019/04/04 01:24:12;;;;;;;8.1;7.3;;;;;;;4.19;71.43066;93477.48;;;;
2019/04/04 01:25:13;;;;;;;8.5;7.699999;;;;;;;4.13;71.60938;93475.9;;;;
2019/04/04 01:26:14;;;;;;;8.5;7.699999;;;;;;;4.13;71.60938;93475.9;;;;
2019/04/04 01:27:16;;;;;;;8.65;7.85;;;;;;;4.08;71.85352;93470.48;;;;
2019/04/04 01:28:17;;;;;;;8.65;7.85;;;;;;;4.08;71.85352;93470.48;;;;
2019/04/04 01:29:18;;;;;;;8.65;7.85;;;;;;;4.08;71.85352;93470.48;;;;
2019/04/04 01:30:19;;;;;;;8.65;7.85;;;;;;;4.08;71.85352;93470.48;;;;
2019/04/04 01:31:20;;;;;;;8.65;7.85;;;;;;;4.08;71.85352;93470.48;;;;
2019/04/04 01:32:22;;;;;;;8.65;7.85;;;;;;;4.08;71.85352;93470.48;;;;
2019/04/04 01:33:23;;;;;;;8.65;7.85;;;;;;;4.08;71.85352;93470.48;;;;
2019/04/04 01:34:24;;;;;;;8.65;7.85;;;;;;;4.08;71.85352;93470.48;;;;
2019/04/04 01:35:25;;;;;;;8.65;7.85;;;;;;;4.08;71.85352;93470.48;;;;
2019/04/04 01:36:26;;;;;;;8.65;7.85;;;;;;;4.08;71.85352;93470.48;;;;
2019/04/04 01:37:28;;;;;;;8.65;7.85;;;;;;;4.08;71.85352;93470.48;;;;
2019/04/04 01:38:29;;;;;;;8.549999;7.55;;;;;;;3.51;70.75781;93464.33;;;;
2019/04/04 01:39:30;;;;;;;8.549999;7.55;;;;;;;3.51;70.75781;93464.33;;;;
2019/04/04 01:40:32;;;;;;;8.549999;7.55;;;;;;;3.51;70.75781;93464.33;;;;
2019/04/04 01:41:33;;;;;;;8.549999;7.55;;;;;;;3.51;70.75781;93464.33;;;;
2019/04/04 01:42:34;;;;;;;8.549999;7.55;;;;;;;3.51;70.75781;93464.33;;;;
2019/04/04 01:43:36;;;;;;;8.799998;7.849999;;;;;;;3.53;71.6582;93463.06;;;;
2019/04/04 01:44:37;;;;;;;8.799998;7.849999;;;;;;;3.53;71.6582;93463.06;;;;
2019/04/04 01:45:38;;;;;;;8.799998;7.849999;;;;;;;3.53;71.6582;93463.06;;;;
2019/04/04 01:46:39;;;;;;;9;8.1;;;;;;;3.57;71.78906;93458.98;;;;
2019/04/04 01:47:40;;;;;;;9;8.1;;;;;;;3.57;71.78906;93458.98;;;;
2019/04/04 01:48:45;;;;;;;9.4;8.4;;;;;;;3.55;72.00684;93451.73;;;;
2019/04/04 01:49:46;;;;;;;9.4;8.4;;;;;;;3.55;72.00684;93451.73;;;;
2019/04/04 01:50:48;;;;;;;9.4;8.4;;;;;;;3.55;72.00684;93451.73;;;;
2019/04/04 01:51:49;;;;;;;9.500001;8.4;;;;;;;3.52;72.33984;93449.95;;;;
2019/04/04 01:52:50;;;;;;;9.500001;8.4;;;;;;;3.52;72.33984;93449.95;;;;
2019/04/04 01:53:52;;;;;;;9.500001;8.4;;;;;;;3.52;72.33984;93449.95;;;;
2019/04/04 01:54:53;;;;;;;9.500001;8.4;;;;;;;3.52;72.33984;93449.95;;;;
2019/04/04 01:55:54;;;;;;;9.500001;8.4;;;;;;;3.52;72.33984;93449.95;;;;
2019/04/04 01:56:55;;;;;;;9.500001;8.4;;;;;;;3.52;72.33984;93449.95;;;;
2019/04/04 01:57:56;;;;;;;9.500001;8.4;;;;;;;3.52;72.33984;93449.95;;;;
2019/04/04 01:58:58;;;;;;;9.500001;8.4;;;;;;;3.52;72.33984;93449.95;;;;
2019/04/04 01:59:59;;;;;;;9.500001;8.4;;;;;;;3.52;72.33984;93449.95;;;;
2019/04/04 02:01:00;;;;;;;9.500001;8.4;;;;;;;3.52;72.33984;93449.95;;;;
2019/04/04 02:02:01;;;;;;;9.249999;7.799999;;;;;;;3.06;71.32715;93438.89;;;;
2019/04/04 02:03:03;;;;;;;9.249999;7.799999;;;;;;;3.06;71.32715;93438.89;;;;
2019/04/04 02:04:04;;;;;;;9.249999;7.799999;;;;;;;3.06;71.32715;93438.89;;;;
2019/04/04 02:05:05;;;;;;;9.9;8.749999;;;;;;;3.03;72.05664;93444.3;;;;
2019/04/04 02:06:07;;;;;;;9.9;8.749999;;;;;;;3.03;72.05664;93444.3;;;;
2019/04/04 02:07:08;;;;;;;9.9;8.749999;;;;;;;3.03;72.05664;93444.3;;;;
2019/04/04 02:08:10;;;;;;;9.65;8.65;;;;;;;3.07;72.48438;93438.37;;;;
2019/04/04 02:09:11;;;;;;;9.65;8.65;;;;;;;3.07;72.48438;93438.37;;;;
2019/04/04 02:10:13;;;;;;;9.65;8.65;;;;;;;3.07;72.48438;93438.37;;;;
2019/04/04 02:11:14;;;;;;;9.65;8.65;;;;;;;3.07;72.48438;93438.37;;;;
2019/04/04 02:12:15;;;;;;;9.65;8.65;;;;;;;3.07;72.48438;93438.37;;;;
2019/04/04 02:13:16;;;;;;;9.65;8.65;;;;;;;3.07;72.48438;93438.37;;;;
2019/04/04 02:14:18;;;;;;;9.65;8.65;;;;;;;3.07;72.48438;93438.37;;;;
2019/04/04 02:15:19;;;;;;;9.65;8.65;;;;;;;3.07;72.48438;93438.37;;;;
2019/04/04 02:16:20;;;;;;;9.65;8.65;;;;;;;3.07;72.48438;93438.37;;;;
2019/04/04 02:17:21;;;;;;;9.65;8.65;;;;;;;3.07;72.48438;93438.37;;;;
2019/04/04 02:18:23;;;;;;;9.65;8.65;;;;;;;3.07;72.48438;93438.37;;;;
2019/04/04 02:19:24;;;;;;;9.65;8.65;;;;;;;3.07;72.48438;93438.37;;;;
2019/04/04 02:20:25;;;;;;;9.65;8.65;;;;;;;3.07;72.48438;93438.37;;;;
2019/04/04 02:21:26;;;;;;;9.450001;7.7;;;;;;;2.93;71.35742;93424.11;;;;
2019/04/04 02:22:28;;;;;;;9.450001;7.7;;;;;;;2.93;71.35742;93424.11;;;;
2019/04/04 02:23:29;;;;;;;9.55;8.450002;;;;;;;2.92;72.10156;93408.73;;;;
2019/04/04 02:24:30;;;;;;;9.55;8.450002;;;;;;;2.92;72.10156;93408.73;;;;
2019/04/04 02:25:31;;;;;;;9.55;8.450002;;;;;;;2.92;72.10156;93408.73;;;;
2019/04/04 02:26:33;;;;;;;9.55;8.450002;;;;;;;2.92;72.10156;93408.73;;;;
2019/04/04 02:27:34;;;;;;;9.55;8.450002;;;;;;;2.92;72.10156;93408.73;;;;
2019/04/04 02:28:35;;;;;;;9.55;8.450002;;;;;;;2.92;72.10156;93408.73;;;;
2019/04/04 02:29:37;;;;;;;9.55;8.450002;;;;;;;2.92;72.10156;93408.73;;;;
2019/04/04 02:30:38;;;;;;;9.55;8.450002;;;;;;;2.92;72.10156;93408.73;;;;
2019/04/04 02:31:42;;;;;;;9.55;8.450002;;;;;;;2.92;72.10156;93408.73;;;;
2019/04/04 02:32:43;;;;;;;9.55;8.450002;;;;;;;2.92;72.10156;93408.73;;;;
2019/04/04 02:33:45;;;;;;;9.55;8.450002;;;;;;;2.92;72.10156;93408.73;;;;
2019/04/04 02:34:46;;;;;;;9.55;8.450002;;;;;;;2.92;72.10156;93408.73;;;;
2019/04/04 02:35:47;;;;;;;9.55;8.450002;;;;;;;2.92;72.10156;93408.73;;;;
2019/04/04 02:36:48;;;;;;;9.55;8.450002;;;;;;;2.92;72.10156;93408.73;;;;
2019/04/04 02:37:49;;;;;;;10.4;8.749998;;;;;;;2.97;71.80371;93383.54;;;;
2019/04/04 02:38:51;;;;;;;10.4;8.749998;;;;;;;2.97;71.80371;93383.54;;;;
2019/04/04 02:40:09;;;;;;;10.4;8.749998;;;;;;;2.97;71.80371;93383.54;;;;
2019/04/04 02:41:10;;;;;;;10.4;8.749998;;;;;;;2.97;71.80371;93383.54;;;;
2019/04/04 02:42:11;;;;;;;10.4;8.749998;;;;;;;2.97;71.80371;93383.54;;;;
2019/04/04 02:43:12;;;;;;;10.4;8.749998;;;;;;;2.97;71.80371;93383.54;;;;
2019/04/04 02:44:13;;;;;;;10.4;8.749998;;;;;;;2.97;71.80371;93383.54;;;;
2019/04/04 02:45:15;;;;;;;10.4;8.749998;;;;;;;2.97;71.80371;93383.54;;;;
2019/04/04 02:46:16;;;;;;;10.4;8.749998;;;;;;;2.97;71.80371;93383.54;;;;
2019/04/04 02:47:17;;;;;;;10.4;8.749998;;;;;;;2.97;71.80371;93383.54;;;;
2019/04/04 02:48:18;;;;;;;11.85;9.150001;;;;;;;3.21;70.58203;93367.74;;;;
2019/04/04 02:49:19;;;;;;;11.85;9.150001;;;;;;;3.21;70.58203;93367.74;;;;
2019/04/04 02:50:21;;;;;;;11.35;10.1;;;;;;;3.34;71.29883;93369.72;;;;
2019/04/04 02:51:22;;;;;;;11.35;10.1;;;;;;;3.34;71.29883;93369.72;;;;
2019/04/04 02:52:23;;;;;;;11.35;10.1;;;;;;;3.34;71.29883;93369.72;;;;
2019/04/04 02:53:24;;;;;;;11.35;10.1;;;;;;;3.34;71.29883;93369.72;;;;
2019/04/04 02:54:25;;;;;;;11.35;10.1;;;;;;;3.34;71.29883;93369.72;;;;
2019/04/04 02:55:26;;;;;;;11.35;10.1;;;;;;;3.34;71.29883;93369.72;;;;
2019/04/04 02:56:28;;;;;;;11.35;10.1;;;;;;;3.34;71.29883;93369.72;;;;
2019/04/04 02:57:29;;;;;;;11.35;10.1;;;;;;;3.34;71.29883;93369.72;;;;
2019/04/04 02:58:30;;;;;;;11.35;10.1;;;;;;;3.34;71.29883;93369.72;;;;
2019/04/04 02:59:31;;;;;;;11.35;10.1;;;;;;;3.34;71.29883;93369.72;;;;
2019/04/04 03:00:32;;;;;;;11.35;10.1;;;;;;;3.34;71.29883;93369.72;;;;
2019/04/04 03:01:33;;;;;;;11.1;9.300001;;;;;;;3.66;70.13965;93348.15;;;;
2019/04/04 03:02:35;;;;;;;11.1;9.300001;;;;;;;3.66;70.13965;93348.15;;;;
2019/04/04 03:03:36;;;;;;;11.1;9.300001;;;;;;;3.66;70.13965;93348.15;;;;
2019/04/04 03:04:37;;;;;;;11.1;9.300001;;;;;;;3.66;70.13965;93348.15;;;;
2019/04/04 03:05:38;;;;;;;11.1;9.300001;;;;;;;3.66;70.13965;93348.15;;;;
2019/04/04 03:06:39;;;;;;;11.1;9.300001;;;;;;;3.66;70.13965;93348.15;;;;
2019/04/04 03:07:40;;;;;;;11.1;9.300001;;;;;;;3.66;70.13965;93348.15;;;;
2019/04/04 03:08:42;;;;;;;11.1;9.300001;;;;;;;3.66;70.13965;93348.15;;;;
2019/04/04 03:09:43;;;;;;;11.1;9.300001;;;;;;;3.66;70.13965;93348.15;;;;
2019/04/04 03:10:44;;;;;;;11.1;9.300001;;;;;;;3.66;70.13965;93348.15;;;;
2019/04/04 03:11:45;;;;;;;11.1;9.300001;;;;;;;3.66;70.13965;93348.15;;;;
2019/04/04 03:12:46;;;;;;;11.1;9.300001;;;;;;;3.66;70.13965;93348.15;;;;
2019/04/04 03:13:47;;;;;;;11.1;9.300001;;;;;;;3.66;70.13965;93348.15;;;;
2019/04/04 03:14:49;;;;;;;12.15;9.699999;;;;;;;4.1;69.53516;93329.52;;;;
2019/04/04 03:15:50;;;;;;;12.15;9.699999;;;;;;;4.1;69.53516;93329.52;;;;
2019/04/04 03:16:51;;;;;;;12.4;10;;;;;;;4.19;70.24707;93326.72;;;;
2019/04/04 03:17:52;;;;;;;12.4;10;;;;;;;4.19;70.24707;93326.72;;;;
2019/04/04 03:18:53;;;;;;;12.4;10;;;;;;;4.19;70.24707;93326.72;;;;
2019/04/04 03:19:54;;;;;;;12.7;10.4;;;;;;;4.32;70.72266;93317.82;;;;
2019/04/04 03:20:56;;;;;;;12.7;10.4;;;;;;;4.32;70.72266;93317.82;;;;
2019/04/04 03:21:57;;;;;;;12.7;10.4;;;;;;;4.32;70.72266;93317.82;;;;
2019/04/04 03:22:58;;;;;;;11.85;10.35;;;;;;;4.46;71.12402;93316.55;;;;
2019/04/04 03:23:59;;;;;;;11.85;10.35;;;;;;;4.46;71.12402;93316.55;;;;
2019/04/04 03:25:00;;;;;;;11.85;10.35;;;;;;;4.46;71.12402;93316.55;;;;
2019/04/04 03:26:01;;;;;;;11.85;10.35;;;;;;;4.46;71.12402;93316.55;;;;
2019/04/04 03:27:03;;;;;;;11.85;10.35;;;;;;;4.46;71.12402;93316.55;;;;
2019/04/04 03:28:04;;;;;;;11.85;10.35;;;;;;;4.46;71.12402;93316.55;;;;
2019/04/04 03:29:05;;;;;;;11.85;10.35;;;;;;;4.46;71.12402;93316.55;;;;
2019/04/04 03:30:06;;;;;;;11.85;10.35;;;;;;;4.46;71.12402;93316.55;;;;
2019/04/04 03:31:07;;;;;;;11.85;10.35;;;;;;;4.46;71.12402;93316.55;;;;
2019/04/04 03:32:08;;;;;;;11.85;10.35;;;;;;;4.46;71.12402;93316.55;;;;
2019/04/04 03:33:10;;;;;;;11.85;10.35;;;;;;;4.46;71.12402;93316.55;;;;
2019/04/04 03:34:11;;;;;;;11.85;10.35;;;;;;;4.46;71.12402;93316.55;;;;
2019/04/04 03:35:12;;;;;;;11.85;10.35;;;;;;;4.46;71.12402;93316.55;;;;
2019/04/04 03:36:13;;;;;;;12.45;10.5;;;;;;;4.65;70.42969;93280.33;;;;
2019/04/04 03:37:14;;;;;;;12.45;10.5;;;;;;;4.65;70.42969;93280.33;;;;
2019/04/04 03:38:15;;;;;;;12.45;10.5;;;;;;;4.65;70.42969;93280.33;;;;
2019/04/04 03:39:17;;;;;;;12.45;10.5;;;;;;;4.65;70.42969;93280.33;;;;
2019/04/04 03:40:18;;;;;;;12.45;10.5;;;;;;;4.65;70.42969;93280.33;;;;
2019/04/04 03:41:19;;;;;;;12.45;10.5;;;;;;;4.65;70.42969;93280.33;;;;
2019/04/04 03:42:20;;;;;;;12.45;10.5;;;;;;;4.65;70.42969;93280.33;;;;
2019/04/04 03:43:21;;;;;;;12.45;10.5;;;;;;;4.65;70.42969;93280.33;;;;
2019/04/04 03:44:22;;;;;;;12.45;10.5;;;;;;;4.65;70.42969;93280.33;;;;
2019/04/04 03:45:24;;;;;;;12.45;10.5;;;;;;;4.65;70.42969;93280.33;;;;
2019/04/04 03:46:25;;;;;;;12.5;10.75;;;;;;;4.66;69.50977;93267.38;;;;
2019/04/04 03:47:26;;;;;;;12.5;10.75;;;;;;;4.66;69.50977;93267.38;;;;
2019/04/04 03:48:27;;;;;;;12.5;10.75;;;;;;;4.66;69.50977;93267.38;;;;
2019/04/04 03:49:28;;;;;;;12.1;10.5;;;;;;;4.72;70.27148;93251.54;;;;
2019/04/04 03:50:29;;;;;;;12.1;10.5;;;;;;;4.72;70.27148;93251.54;;;;
2019/04/04 03:51:31;;;;;;;12.1;10.5;;;;;;;4.72;70.27148;93251.54;;;;
2019/04/04 03:52:32;;;;;;;12.1;10.5;;;;;;;4.72;70.27148;93251.54;;;;
2019/04/04 03:53:33;;;;;;;12.1;10.5;;;;;;;4.72;70.27148;93251.54;;;;
2019/04/04 03:54:34;;;;;;;12.1;10.5;;;;;;;4.72;70.27148;93251.54;;;;
2019/04/04 03:55:35;;;;;;;12.1;10.5;;;;;;;4.72;70.27148;93251.54;;;;
2019/04/04 03:56:37;;;;;;;12.1;10.5;;;;;;;4.72;70.27148;93251.54;;;;
2019/04/04 03:57:38;;;;;;;12.1;10.5;;;;;;;4.72;70.27148;93251.54;;;;
2019/04/04 03:58:39;;;;;;;12.1;10.5;;;;;;;4.72;70.27148;93251.54;;;;
2019/04/04 03:59:40;;;;;;;15.2;11.85;;;;;;;4.75;69.60938;93253.31;;;;
2019/04/04 04:00:41;;;;;;;15.2;11.85;;;;;;;4.75;69.60938;93253.31;;;;
2019/04/04 04:01:42;;;;;;;15.2;11.85;;;;;;;4.75;69.60938;93253.31;;;;
2019/04/04 04:02:44;;;;;;;14;12.25;;;;;;;4.8;70.35742;93239.99;;;;
2019/04/04 04:03:45;;;;;;;14;12.25;;;;;;;4.8;70.35742;93239.99;;;;
2019/04/04 04:04:46;;;;;;;14;12.25;;;;;;;4.8;70.35742;93239.99;;;;
2019/04/04 04:05:47;;;;;;;14;12.25;;;;;;;4.8;70.35742;93239.99;;;;
2019/04/04 04:06:48;;;;;;;14;12.25;;;;;;;4.8;70.35742;93239.99;;;;
2019/04/04 04:07:50;;;;;;;14;12.25;;;;;;;4.8;70.35742;93239.99;;;;
2019/04/04 04:08:51;;;;;;;14;12.25;;;;;;;4.8;70.35742;93239.99;;;;
2019/04/04 04:09:52;;;;;;;14;12.25;;;;;;;4.8;70.35742;93239.99;;;;
2019/04/04 04:10:53;;;;;;;14;12.25;;;;;;;4.8;70.35742;93239.99;;;;
2019/04/04 04:11:54;;;;;;;14;12.25;;;;;;;4.8;70.35742;93239.99;;;;
2019/04/04 04:12:56;;;;;;;18.7;12.95;;;;;;;4.82;69.85254;93207.28;;;;
2019/04/04 04:13:57;;;;;;;18.7;12.95;;;;;;;4.82;69.85254;93207.28;;;;
2019/04/04 04:14:58;;;;;;;18.7;12.95;;;;;;;4.82;69.85254;93207.28;;;;
2019/04/04 04:15:59;;;;;;;21.1;14.65;;;;;;;4.89;70.9209;93210.04;;;;
2019/04/04 04:17:00;;;;;;;21.1;14.65;;;;;;;4.89;70.9209;93210.04;;;;
2019/04/04 04:18:01;;;;;;;21.1;14.65;;;;;;;4.89;70.9209;93210.04;;;;
2019/04/04 04:19:03;;;;;;;21.1;14.65;;;;;;;4.89;70.9209;93210.04;;;;
2019/04/04 04:20:04;;;;;;;21.1;14.65;;;;;;;4.89;70.9209;93210.04;;;;
2019/04/04 04:21:05;;;;;;;21.1;14.65;;;;;;;4.89;70.9209;93210.04;;;;
2019/04/04 04:22:06;;;;;;;21.1;14.65;;;;;;;4.89;70.9209;93210.04;;;;
2019/04/04 04:23:07;;;;;;;21.1;14.65;;;;;;;4.89;70.9209;93210.04;;;;
2019/04/04 04:24:08;;;;;;;21.1;14.65;;;;;;;4.89;70.9209;93210.04;;;;
2019/04/04 04:25:09;;;;;;;21.1;14.65;;;;;;;4.89;70.9209;93210.04;;;;
2019/04/04 04:26:11;;;;;;;19;13.15;;;;;;;4.95;70.29785;93177.86;;;;
2019/04/04 04:27:12;;;;;;;19;13.15;;;;;;;4.95;70.29785;93177.86;;;;
2019/04/04 04:28:13;;;;;;;19;13.15;;;;;;;4.95;70.29785;93177.86;;;;
2019/04/04 04:29:14;;;;;;;19.6;13.95;;;;;;;5.02;71.30371;93192.64;;;;
2019/04/04 04:30:15;;;;;;;19.6;13.95;;;;;;;5.02;71.30371;93192.64;;;;
2019/04/04 04:31:17;;;;;;;19.6;13.95;;;;;;;5.02;71.30371;93192.64;;;;
2019/04/04 04:32:18;;;;;;;19.6;13.95;;;;;;;5.02;71.30371;93192.64;;;;
2019/04/04 04:33:19;;;;;;;19.6;13.95;;;;;;;5.02;71.30371;93192.64;;;;
2019/04/04 04:34:20;;;;;;;19.6;13.95;;;;;;;5.02;71.30371;93192.64;;;;
2019/04/04 04:35:21;;;;;;;19.6;13.95;;;;;;;5.02;71.30371;93192.64;;;;
2019/04/04 04:36:22;;;;;;;19.6;13.95;;;;;;;5.02;71.30371;93192.64;;;;
2019/04/04 04:37:24;;;;;;;19.6;13.95;;;;;;;5.02;71.30371;93192.64;;;;
2019/04/04 04:38:25;;;;;;;19.6;13.95;;;;;;;5.02;71.30371;93192.64;;;;
2019/04/04 04:39:26;;;;;;;19.6;13.95;;;;;;;5.02;71.30371;93192.64;;;;
2019/04/04 04:40:27;;;;;;;19.6;13.95;;;;;;;5.02;71.30371;93192.64;;;;
2019/04/04 04:41:28;;;;;;;19.6;13.95;;;;;;;5.02;71.30371;93192.64;;;;
2019/04/04 04:42:29;;;;;;;18.6;13.05;;;;;;;5.16;71.39941;93171.24;;;;
2019/04/04 04:43:31;;;;;;;18.6;13.05;;;;;;;5.16;71.39941;93171.24;;;;
2019/04/04 04:44:32;;;;;;;18.6;13.05;;;;;;;5.16;71.39941;93171.24;;;;
2019/04/04 04:45:33;;;;;;;18.6;13.05;;;;;;;5.16;71.39941;93171.24;;;;
2019/04/04 04:46:34;;;;;;;18.6;13.05;;;;;;;5.16;71.39941;93171.24;;;;
2019/04/04 04:47:35;;;;;;;18.6;13.05;;;;;;;5.16;71.39941;93171.24;;;;
2019/04/04 04:48:36;;;;;;;18.6;13.05;;;;;;;5.16;71.39941;93171.24;;;;
2019/04/04 04:49:37;;;;;;;18.6;13.05;;;;;;;5.16;71.39941;93171.24;;;;
2019/04/04 04:50:39;;;;;;;18.6;13.05;;;;;;;5.16;71.39941;93171.24;;;;
2019/04/04 04:51:40;;;;;;;18.6;13.05;;;;;;;5.16;71.39941;93171.24;;;;
2019/04/04 04:52:41;;;;;;;18.75;12.55;;;;;;;5.11;70.86328;93153.27;;;;
2019/04/04 04:53:43;;;;;;;18.75;12.55;;;;;;;5.11;70.86328;93153.27;;;;
2019/04/04 04:54:44;;;;;;;18.75;12.55;;;;;;;5.11;70.86328;93153.27;;;;
2019/04/04 04:55:45;;;;;;;18.65;13.6;;;;;;;5.15;71.57617;93146.88;;;;
2019/04/04 04:56:46;;;;;;;18.65;13.6;;;;;;;5.15;71.57617;93146.88;;;;
2019/04/04 04:57:47;;;;;;;18.65;13.6;;;;;;;5.15;71.57617;93146.88;;;;
2019/04/04 04:58:48;;;;;;;18.65;13.6;;;;;;;5.15;71.57617;93146.88;;;;
2019/04/04 04:59:49;;;;;;;18.65;13.6;;;;;;;5.15;71.57617;93146.88;;;;
2019/04/04 05:00:51;;;;;;;18.65;13.6;;;;;;;5.15;71.57617;93146.88;;;;
2019/04/04 05:01:52;;;;;;;18.65;13.6;;;;;;;5.15;71.57617;93146.88;;;;
2019/04/04 05:02:53;;;;;;;18.65;13.6;;;;;;;5.15;71.57617;93146.88;;;;
2019/04/04 05:03:54;;;;;;;18.65;13.6;;;;;;;5.15;71.57617;93146.88;;;;
2019/04/04 05:04:55;;;;;;;18.65;13.6;;;;;;;5.15;71.57617;93146.88;;;;
2019/04/04 05:05:57;;;;;;;18.7;13.4;;;;;;;5.09;71.36719;93136.29;;;;
2019/04/04 05:06:58;;;;;;;18.7;13.4;;;;;;;5.09;71.36719;93136.29;;;;
2019/04/04 05:07:59;;;;;;;18.7;13.4;;;;;;;5.09;71.36719;93136.29;;;;
2019/04/04 05:09:00;;;;;;;18.7;13.4;;;;;;;5.09;71.36719;93136.29;;;;
2019/04/04 05:10:02;;;;;;;18.7;13.4;;;;;;;5.09;71.36719;93136.29;;;;
2019/04/04 05:11:04;;;;;;;18.7;13.4;;;;;;;5.09;71.36719;93136.29;;;;
2019/04/04 05:12:05;;;;;;;18.7;13.4;;;;;;;5.09;71.36719;93136.29;;;;
2019/04/04 05:13:06;;;;;;;18.7;13.4;;;;;;;5.09;71.36719;93136.29;;;;
2019/04/04 05:14:07;;;;;;;18.7;13.4;;;;;;;5.09;71.36719;93136.29;;;;
2019/04/04 05:15:08;;;;;;;18.7;13.4;;;;;;;5.09;71.36719;93136.29;;;;
2019/04/04 05:16:10;;;;;;;18.7;13.4;;;;;;;5.09;71.36719;93136.29;;;;
2019/04/04 05:17:11;;;;;;;17.55;12.9;;;;;;;5.11;71.57129;93111.81;;;;
2019/04/04 05:18:12;;;;;;;17.55;12.9;;;;;;;5.11;71.57129;93111.81;;;;
2019/04/04 05:19:13;;;;;;;17.55;12.9;;;;;;;5.11;71.57129;93111.81;;;;
2019/04/04 05:20:14;;;;;;;17.55;12.9;;;;;;;5.11;71.57129;93111.81;;;;
2019/04/04 05:21:16;;;;;;;17.55;12.9;;;;;;;5.11;71.57129;93111.81;;;;
2019/04/04 05:22:17;;;;;;;17.55;12.9;;;;;;;5.11;71.57129;93111.81;;;;
2019/04/04 05:23:18;;;;;;;17.55;12.9;;;;;;;5.11;71.57129;93111.81;;;;
2019/04/04 05:24:19;;;;;;;17.55;12.9;;;;;;;5.11;71.57129;93111.81;;;;
2019/04/04 05:25:20;;;;;;;17.55;12.9;;;;;;;5.11;71.57129;93111.81;;;;
2019/04/04 05:26:21;;;;;;;17.55;12.9;;;;;;;5.11;71.57129;93111.81;;;;
2019/04/04 05:27:23;;;;;;;19.6;13.9;;;;;;;5.12;71.44629;93092.05;;;;
2019/04/04 05:28:24;;;;;;;19.6;13.9;;;;;;;5.12;71.44629;93092.05;;;;
2019/04/04 05:29:25;;;;;;;19.6;13.9;;;;;;;5.12;71.44629;93092.05;;;;
2019/04/04 05:30:26;;;;;;;20.3;14.1;;;;;;;5.21;72.12598;93108.83;;;;
2019/04/04 05:31:27;;;;;;;20.3;14.1;;;;;;;5.21;72.12598;93108.83;;;;
2019/04/04 05:32:28;;;;;;;20.3;14.1;;;;;;;5.21;72.12598;93108.83;;;;
2019/04/04 05:33:30;;;;;;;20.3;14.1;;;;;;;5.21;72.12598;93108.83;;;;
2019/04/04 05:34:31;;;;;;;20.3;14.1;;;;;;;5.21;72.12598;93108.83;;;;
2019/04/04 05:35:32;;;;;;;20.3;14.1;;;;;;;5.21;72.12598;93108.83;;;;
2019/04/04 05:36:33;;;;;;;20.3;14.1;;;;;;;5.21;72.12598;93108.83;;;;
2019/04/04 05:37:34;;;;;;;20.3;14.1;;;;;;;5.21;72.12598;93108.83;;;;
2019/04/04 05:38:36;;;;;;;20.3;14.1;;;;;;;5.21;72.12598;93108.83;;;;
2019/04/04 05:39:37;;;;;;;20.3;14.1;;;;;;;5.21;72.12598;93108.83;;;;
2019/04/04 05:40:38;;;;;;;20.2;14;;;;;;;5.38;71.63672;93063.2;;;;
2019/04/04 05:41:39;;;;;;;20.2;14;;;;;;;5.38;71.63672;93063.2;;;;
2019/04/04 05:42:40;;;;;;;20.2;14;;;;;;;5.38;71.63672;93063.2;;;;
2019/04/04 05:43:41;;;;;;;20.2;14;;;;;;;5.38;71.63672;93063.2;;;;